Capitol Logistics 209




KTPA
Tampa International Airport
Tampa, Florida
KMIA
Miami International Airport
Miami, Florida

Activity Log

Date Flight Route Aircraft Duration
06/19/2021 CPX3261 GANDY8 SABEE CYY CYY9 SF34 1h 19m
03/23/2021 CPX3261 PIE V35 CURVE ANGRO SF34 1h 00m
04/08/2020 CPX3261 GANDY8 SABEE CYY CYY9 SF34 1h 33m
11/19/2019 CPX3261 GANDY8 SABEE CYY CYY9 SF34 1h 04m
11/03/2019 CPX661 GANDY8 SABEE CYY CYY9 SF34 1h 26m

Route Details

Aircraft Information
Group: North America Fleet
Types: B738,B752,B762,B763
Route Data
Demand: V
Distance: 178nm
Duration: 1h 10m
Recm'd Route: GANDY8 SABEE BAARY CYY SSCOT5
Origin Wx: KTPA 270453Z 11003KT 10SM FEW022 BKN250 27/19 A3001 RMK AO2 SLP162 T02670194 403330256
Dest. Wx: KMIA 270453Z 10009KT 10SM FEW023 FEW070 27/22 A3006 RMK AO2 SLP179 OCNL LTGIC DSNT E CB DSNT E MOV NW T02670222 403110261 $
Notes:

Financial History
Total Freight: 22,440lbs
Average Load: 4,488lbs/flt
Fuel Used: 4,600lbs
Avg. Fuel Used: 920lbs/flt
Fuel Expense: $3,998
Avg. Fuel Expense: $800
Avg. Fuel Cost: $0.84/lbs
Total Gross Income: $27,553
Pilot Pay: $1,215
Total Expenses: $10,222
Total Revenue: $11,787
Average Revenue: $5,510.55